createdAt,value
2019-03-27T00:01:31.429Z,99.90
2019-03-27T00:06:31.146Z,99.90
2019-03-27T00:09:01.081Z,99.90
2019-03-27T00:19:01.983Z,99.90
2019-03-27T00:24:01.443Z,99.90
2019-03-27T00:36:30.080Z,99.90
2019-03-27T00:46:29.054Z,99.90
2019-03-27T00:58:57.385Z,99.90
2019-03-27T01:06:26.721Z,99.90
2019-03-27T01:08:56.738Z,99.90
2019-03-27T01:11:26.859Z,99.90
2019-03-27T01:13:56.862Z,99.90
2019-03-27T01:16:26.871Z,99.90
2019-03-27T01:18:57.974Z,99.90
2019-03-27T01:21:28.008Z,99.90
2019-03-27T01:23:57.971Z,99.90
2019-03-27T01:28:58.679Z,99.90
2019-03-27T01:31:28.710Z,99.90
2019-03-27T01:33:58.735Z,99.90
2019-03-27T01:36:28.889Z,99.90
2019-03-27T01:38:58.860Z,99.90
2019-03-27T01:46:28.958Z,99.90
2019-03-27T01:48:58.956Z,99.90
2019-03-27T01:56:28.039Z,99.90
2019-03-27T01:58:57.995Z,99.90
2019-03-27T02:03:58.522Z,99.90
2019-03-27T02:06:28.460Z,99.90
2019-03-27T02:08:58.383Z,99.90
2019-03-27T02:11:28.325Z,99.90
2019-03-27T02:13:58.479Z,99.90
2019-03-27T02:18:58.648Z,99.90
2019-03-27T02:23:58.222Z,99.90
2019-03-27T02:26:28.147Z,99.90
2019-03-27T02:28:58.106Z,99.90
2019-03-27T02:31:28.431Z,99.90
2019-03-27T02:33:58.437Z,99.90
2019-03-27T02:36:28.872Z,99.90
2019-03-27T02:38:59.831Z,99.90
2019-03-27T02:41:29.827Z,99.90
2019-03-27T02:44:00.323Z,99.90
2019-03-27T02:46:30.286Z,99.90
2019-03-27T02:49:00.311Z,99.90
2019-03-27T02:51:30.305Z,99.90
2019-03-27T02:54:00.262Z,99.90
2019-03-27T02:56:30.218Z,99.90
2019-03-27T02:59:00.248Z,99.90
2019-03-27T03:01:30.163Z,99.90
2019-03-27T03:04:00.114Z,99.90
2019-03-27T03:06:30.218Z,99.90
2019-03-27T03:09:00.329Z,99.90
2019-03-27T03:11:30.638Z,99.90
2019-03-27T03:14:00.569Z,99.90
2019-03-27T03:16:41.945Z,99.90
2019-03-27T03:19:02.225Z,99.90
2019-03-27T03:21:32.202Z,99.90
2019-03-27T03:24:02.263Z,99.90
2019-03-27T03:26:32.244Z,99.90
2019-03-27T03:29:03.187Z,99.90
2019-03-27T03:31:33.271Z,99.90
2019-03-27T03:34:04.202Z,99.90
2019-03-27T03:36:34.163Z,99.90
2019-03-27T03:39:05.915Z,99.90
2019-03-27T03:41:35.840Z,99.90
2019-03-27T03:44:05.778Z,99.90
2019-03-27T03:46:35.832Z,99.90
2019-03-27T03:49:07.723Z,99.90
2019-03-27T03:51:40.196Z,99.90
2019-03-27T03:54:10.750Z,99.90
2019-03-27T03:56:42.264Z,99.90
2019-03-27T03:59:19.872Z,99.90
2019-03-27T04:01:52.968Z,99.90
2019-03-27T04:04:23.477Z,99.90
2019-03-27T04:06:53.477Z,99.90
2019-03-27T04:09:23.432Z,99.90
2019-03-27T04:11:53.353Z,99.90
2019-03-27T04:14:23.333Z,99.90
2019-03-27T04:17:17.413Z,99.90
2019-03-27T04:19:43.754Z,99.90
2019-03-27T04:22:13.684Z,99.90
2019-03-27T04:24:43.676Z,99.90
2019-03-27T04:27:13.596Z,99.90
2019-03-27T04:29:43.565Z,99.90
2019-03-27T04:32:26.186Z,99.90
2019-03-27T04:34:56.860Z,99.90
2019-03-27T04:37:26.818Z,99.90
2019-03-27T04:42:26.337Z,99.90
2019-03-27T04:47:31.989Z,99.90
2019-03-27T04:49:57.468Z,99.90
2019-03-27T04:54:57.091Z,99.90
2019-03-27T04:57:27.090Z,99.90
2019-03-27T04:59:57.009Z,99.90
2019-03-27T05:02:26.999Z,99.90
2019-03-27T05:04:57.585Z,99.90
2019-03-27T05:07:27.513Z,99.90
2019-03-27T05:12:27.140Z,99.90
2019-03-27T05:14:57.108Z,99.90
2019-03-27T05:22:26.147Z,99.90
2019-03-27T05:24:56.434Z,99.90
2019-03-27T05:27:26.500Z,99.90
2019-03-27T05:29:56.459Z,99.90
2019-03-27T05:32:38.722Z,99.90
2019-03-27T05:35:09.699Z,99.90
2019-03-27T05:37:40.724Z,99.90
2019-03-27T05:40:10.950Z,99.90
2019-03-27T05:42:42.546Z,99.90
2019-03-27T05:45:12.649Z,99.90
2019-03-27T05:47:42.677Z,99.90
2019-03-27T05:50:13.207Z,99.90
2019-03-27T05:52:43.137Z,99.90
2019-03-27T05:55:13.300Z,99.90
2019-03-27T05:57:43.313Z,99.90
2019-03-27T06:00:14.685Z,99.90
2019-03-27T06:02:44.630Z,99.90
2019-03-27T06:05:14.730Z,99.90
2019-03-27T06:07:44.680Z,99.90
2019-03-27T06:10:16.455Z,99.90
2019-03-27T06:12:46.711Z,99.90
2019-03-27T06:15:16.669Z,99.90
2019-03-27T06:17:46.786Z,99.90
2019-03-27T06:20:16.761Z,99.90
2019-03-27T06:22:49.478Z,99.90
2019-03-27T06:25:19.523Z,99.90
2019-03-27T06:27:49.572Z,99.90
2019-03-27T06:30:19.706Z,99.90
2019-03-27T06:32:49.813Z,99.90
2019-03-27T06:35:20.284Z,99.90
2019-03-27T06:37:50.503Z,99.90
2019-03-27T06:40:20.422Z,99.90
2019-03-27T06:42:50.458Z,99.90
2019-03-27T06:45:20.858Z,99.90
2019-03-27T06:47:50.908Z,99.90
2019-03-27T06:50:20.910Z,99.90
2019-03-27T06:52:51.195Z,99.90
2019-03-27T06:55:21.127Z,99.90
2019-03-27T06:57:51.144Z,99.90
2019-03-27T07:00:24.281Z,99.90
2019-03-27T07:05:23.863Z,99.90
2019-03-27T07:07:53.789Z,99.90
2019-03-27T07:10:23.747Z,99.90
2019-03-27T07:15:23.298Z,99.90
2019-03-27T07:20:22.770Z,99.90
2019-03-27T07:22:52.695Z,99.90
2019-03-27T07:25:22.623Z,99.90
2019-03-27T07:27:52.570Z,99.90
2019-03-27T07:30:22.579Z,99.90
2019-03-27T07:32:56.232Z,99.90
2019-03-27T07:35:26.261Z,99.90
2019-03-27T07:37:57.274Z,99.90
2019-03-27T07:40:27.211Z,99.90
2019-03-27T07:45:26.670Z,99.90
2019-03-27T07:47:56.626Z,99.90
2019-03-27T07:52:56.112Z,99.90
2019-03-27T07:55:26.033Z,99.90
2019-03-27T07:57:55.941Z,99.90
2019-03-27T08:00:26.088Z,99.90
2019-03-27T08:07:55.356Z,99.90
2019-03-27T08:10:25.345Z,99.90
2019-03-27T08:12:55.252Z,97.90
2019-03-27T08:15:25.246Z,99.90
2019-03-27T08:17:55.289Z,92.90
2019-03-27T08:20:25.222Z,97.40
2019-03-27T08:22:55.199Z,94.70
2019-03-27T08:25:25.129Z,85.90
2019-03-27T08:30:24.759Z,97.60
2019-03-27T08:32:54.832Z,99.70
2019-03-27T08:35:24.783Z,99.50
2019-03-27T08:37:55.534Z,99.90
2019-03-27T08:40:25.459Z,97.40
2019-03-27T08:45:25.011Z,98.60
2019-03-27T08:50:24.699Z,95.10
2019-03-27T08:52:54.665Z,79.10
2019-03-27T08:55:24.583Z,92.30
2019-03-27T08:57:55.590Z,77.20
2019-03-27T09:00:34.115Z,81.60
2019-03-27T09:03:04.095Z,81.20
2019-03-27T09:05:34.104Z,95.90
2019-03-27T09:10:34.557Z,88.90
2019-03-27T09:13:05.447Z,83.00
2019-03-27T09:15:35.377Z,78.60
2019-03-27T09:18:05.461Z,76.40
2019-03-27T09:20:35.500Z,93.40
2019-03-27T09:23:05.449Z,91.30
2019-03-27T09:25:35.454Z,94.40
2019-03-27T09:28:05.766Z,92.80
2019-03-27T09:33:05.981Z,93.40
2019-03-27T09:38:06.240Z,86.10
2019-03-27T09:43:06.411Z,88.50
2019-03-27T09:50:35.745Z,95.50
2019-03-27T09:53:05.663Z,90.00
2019-03-27T09:55:35.911Z,80.00
2019-03-27T09:58:05.881Z,64.50
2019-03-27T10:00:49.376Z,62.10
2019-03-27T10:03:19.439Z,62.80
2019-03-27T10:05:49.387Z,60.10
2019-03-27T10:10:50.246Z,81.80
2019-03-27T10:15:49.692Z,56.80
2019-03-27T10:18:19.649Z,69.90
2019-03-27T10:23:19.206Z,50.10
2019-03-27T10:25:49.146Z,42.00
2019-03-27T10:28:19.183Z,33.20
2019-03-27T10:33:19.144Z,28.80
2019-03-27T10:35:49.128Z,28.80
2019-03-27T10:38:19.228Z,29.50
2019-03-27T10:40:49.334Z,27.50
2019-03-27T10:43:19.437Z,44.70
2019-03-27T10:45:49.364Z,43.50
2019-03-27T10:48:19.354Z,28.60
2019-03-27T10:50:49.862Z,26.90
2019-03-27T10:53:19.848Z,25.30
2019-03-27T10:55:49.812Z,25.20
2019-03-27T10:58:19.749Z,30.00
2019-03-27T11:00:49.693Z,28.00
2019-03-27T11:03:19.642Z,29.90
2019-03-27T11:08:19.075Z,51.30
2019-03-27T11:10:49.211Z,32.90
2019-03-27T11:13:19.134Z,50.80
2019-03-27T11:15:49.101Z,34.20
2019-03-27T11:18:19.032Z,35.60
2019-03-27T11:20:48.970Z,35.20
2019-03-27T11:23:18.925Z,34.70
2019-03-27T11:25:49.925Z,35.00
2019-03-27T11:28:20.293Z,50.40
2019-03-27T11:30:50.260Z,52.50
2019-03-27T11:33:21.262Z,55.90
2019-03-27T11:35:51.838Z,34.90
2019-03-27T11:43:21.604Z,57.50
2019-03-27T11:45:51.564Z,57.90
2019-03-27T11:55:53.569Z,52.80
2019-03-27T11:58:23.531Z,49.80
2019-03-27T12:00:55.069Z,50.20
2019-03-27T12:03:25.293Z,34.70
2019-03-27T12:05:55.259Z,55.40
2019-03-27T12:08:25.214Z,54.20
2019-03-27T12:10:55.260Z,57.70
2019-03-27T12:13:25.194Z,53.90
2019-03-27T12:15:55.176Z,54.30
2019-03-27T12:20:59.532Z,52.00
2019-03-27T12:23:27.444Z,53.20
2019-03-27T12:25:58.459Z,51.30
2019-03-27T12:28:28.530Z,50.50
2019-03-27T12:30:58.791Z,54.80
2019-03-27T12:33:28.750Z,34.30
2019-03-27T12:35:58.741Z,33.30
2019-03-27T12:38:28.739Z,31.80
2019-03-27T12:40:58.685Z,32.40
2019-03-27T12:43:28.647Z,30.80
2019-03-27T12:45:58.573Z,28.70
2019-03-27T12:48:28.503Z,27.50
2019-03-27T12:51:11.704Z,26.30
2019-03-27T12:53:30.350Z,24.60
2019-03-27T12:56:00.403Z,24.30
2019-03-27T12:58:30.456Z,24.90
2019-03-27T13:01:00.391Z,25.60
2019-03-27T13:03:30.296Z,24.80
2019-03-27T13:06:00.264Z,25.60
2019-03-27T13:08:30.206Z,25.00
2019-03-27T13:11:01.626Z,24.70
2019-03-27T13:13:31.582Z,25.60
2019-03-27T13:16:01.528Z,25.40
2019-03-27T13:18:31.475Z,24.30
2019-03-27T13:21:01.534Z,23.80
2019-03-27T13:23:32.535Z,24.10
2019-03-27T13:26:02.592Z,25.20
2019-03-27T13:28:32.519Z,25.80
2019-03-27T13:31:03.672Z,24.80
2019-03-27T13:36:04.182Z,26.80
2019-03-27T13:38:33.957Z,38.40
2019-03-27T13:43:33.105Z,45.80
2019-03-27T13:48:32.274Z,38.80
2019-03-27T13:56:00.508Z,37.10
2019-03-27T14:01:00.402Z,24.60
2019-03-27T14:03:30.074Z,40.80
2019-03-27T14:05:59.716Z,40.30
2019-03-27T14:08:29.789Z,41.40
2019-03-27T14:10:59.739Z,27.00
2019-03-27T14:16:02.404Z,39.40
2019-03-27T14:21:01.374Z,41.90
2019-03-27T14:23:31.004Z,25.50
2019-03-27T14:28:30.254Z,33.70
2019-03-27T14:38:28.242Z,46.80
2019-03-27T14:43:27.845Z,44.60
2019-03-27T14:48:26.705Z,29.80
2019-03-27T14:50:56.427Z,40.80
2019-03-27T14:53:26.103Z,28.30
2019-03-27T14:55:56.107Z,28.10
2019-03-27T14:58:52.418Z,30.00
2019-03-27T15:01:22.359Z,31.50
2019-03-27T15:03:52.286Z,28.50
2019-03-27T15:06:22.904Z,29.90
2019-03-27T15:08:52.881Z,45.50
2019-03-27T15:11:22.912Z,30.90
2019-03-27T15:13:53.005Z,54.60
2019-03-27T15:16:22.942Z,57.20
2019-03-27T15:18:52.888Z,51.60
2019-03-27T15:21:23.027Z,57.80
2019-03-27T15:26:23.503Z,48.60
2019-03-27T15:28:53.424Z,50.80
2019-03-27T15:31:28.579Z,49.30
2019-03-27T15:36:28.043Z,57.20
2019-03-27T15:38:58.034Z,59.50
2019-03-27T15:41:27.941Z,51.00
2019-03-27T15:46:27.410Z,37.50
2019-03-27T15:48:57.348Z,36.60
2019-03-27T15:51:27.304Z,36.50
2019-03-27T15:53:57.258Z,36.40
2019-03-27T15:56:27.275Z,36.80
2019-03-27T15:58:57.245Z,36.20
2019-03-27T16:01:27.176Z,36.30
2019-03-27T16:03:57.379Z,38.30
2019-03-27T16:06:27.362Z,56.70
2019-03-27T16:08:57.287Z,56.40
2019-03-27T16:11:27.353Z,56.60
2019-03-27T16:13:57.396Z,66.90
2019-03-27T16:16:27.379Z,71.40
2019-03-27T16:18:57.378Z,58.20
2019-03-27T16:21:27.327Z,82.50
2019-03-27T16:24:06.272Z,53.50
2019-03-27T16:28:59.679Z,71.10
2019-03-27T16:38:58.286Z,70.70
2019-03-27T16:41:28.410Z,71.50
2019-03-27T16:43:58.665Z,76.60
2019-03-27T16:46:28.808Z,77.60
2019-03-27T16:48:58.827Z,88.10
2019-03-27T16:51:29.056Z,72.50
2019-03-27T16:59:04.438Z,64.00
2019-03-27T17:01:34.383Z,73.10
2019-03-27T17:04:04.475Z,90.30
2019-03-27T17:06:34.667Z,78.80
2019-03-27T17:09:07.142Z,76.20
2019-03-27T17:11:37.130Z,78.50
2019-03-27T17:14:07.407Z,84.80
2019-03-27T17:16:37.409Z,88.90
2019-03-27T17:19:07.441Z,83.40
2019-03-27T17:21:37.453Z,66.90
2019-03-27T17:24:07.383Z,87.10
2019-03-27T17:26:37.406Z,75.30
2019-03-27T17:29:07.375Z,78.20
2019-03-27T17:31:37.415Z,83.20
2019-03-27T17:39:08.152Z,87.90
2019-03-27T17:46:50.670Z,86.00
2019-03-27T17:54:21.022Z,61.40
2019-03-27T17:56:51.144Z,88.10
2019-03-27T17:59:21.069Z,64.70
2019-03-27T18:01:51.306Z,90.80
2019-03-27T18:04:23.855Z,76.30
2019-03-27T18:06:53.932Z,90.40
2019-03-27T18:31:58.777Z,99.90
2019-03-27T18:34:31.931Z,99.90
2019-03-27T18:42:01.297Z,99.90
2019-03-27T18:49:30.588Z,99.90
2019-03-27T18:52:01.472Z,99.90
2019-03-27T18:54:31.592Z,99.90
2019-03-27T18:57:01.574Z,99.90
2019-03-27T19:02:01.479Z,99.90
2019-03-27T19:04:31.603Z,99.90
2019-03-27T19:07:01.580Z,99.90
2019-03-27T19:09:31.735Z,99.90
2019-03-27T19:12:01.767Z,99.90
2019-03-27T19:14:31.867Z,99.90
2019-03-27T19:17:02.006Z,99.90
2019-03-27T19:19:33.012Z,99.90
2019-03-27T19:22:02.994Z,99.90
2019-03-27T19:24:33.162Z,99.90
2019-03-27T19:27:03.177Z,99.90
2019-03-27T19:32:02.872Z,99.90
2019-03-27T19:44:34.850Z,99.90
2019-03-27T19:47:05.589Z,99.90
2019-03-27T19:52:05.056Z,99.90
2019-03-27T19:57:05.029Z,99.90
2019-03-27T19:59:35.360Z,99.90
2019-03-27T20:07:04.538Z,99.90
2019-03-27T20:09:34.746Z,99.90
2019-03-27T20:12:29.270Z,99.90
2019-03-27T20:15:11.285Z,99.90
2019-03-27T20:17:31.019Z,99.90
2019-03-27T20:20:01.423Z,99.90
2019-03-27T20:27:31.711Z,99.90
2019-03-27T20:30:01.897Z,99.90
2019-03-27T20:35:01.332Z,99.90
2019-03-27T20:40:00.963Z,99.90
2019-03-27T20:42:30.920Z,99.90
2019-03-27T20:47:31.113Z,99.90
2019-03-27T20:50:01.083Z,99.90
2019-03-27T20:57:30.197Z,99.90
2019-03-27T21:04:59.330Z,99.90
2019-03-27T21:09:59.057Z,99.90
2019-03-27T21:12:29.062Z,99.90
2019-03-27T21:14:58.995Z,99.90
2019-03-27T21:17:29.177Z,99.90
2019-03-27T21:19:59.095Z,99.90
2019-03-27T21:22:30.048Z,99.90
2019-03-27T21:27:31.415Z,99.90
2019-03-27T21:30:01.543Z,99.90
2019-03-27T21:32:33.243Z,99.90
2019-03-27T21:35:03.595Z,99.90
2019-03-27T21:37:33.572Z,99.90
2019-03-27T21:40:05.602Z,99.90
2019-03-27T21:57:43.817Z,99.90
2019-03-27T22:05:19.817Z,99.90
2019-03-27T22:07:49.793Z,99.90
2019-03-27T22:10:19.724Z,99.90
2019-03-27T22:12:49.685Z,99.90
2019-03-27T22:15:19.699Z,99.90
2019-03-27T22:17:49.660Z,99.90
2019-03-27T22:20:19.677Z,99.90
2019-03-27T22:22:49.614Z,99.90
2019-03-27T22:25:19.603Z,99.90
2019-03-27T22:27:49.557Z,99.90
2019-03-27T22:30:20.613Z,99.90
2019-03-27T22:32:50.550Z,99.90
2019-03-27T22:35:20.495Z,99.90
2019-03-27T22:37:50.527Z,99.90
2019-03-27T22:40:20.660Z,99.90
2019-03-27T22:42:50.676Z,99.90
2019-03-27T22:45:20.710Z,99.90
2019-03-27T22:47:51.391Z,99.90
2019-03-27T22:50:21.484Z,99.90
2019-03-27T22:52:51.558Z,99.90
2019-03-27T22:55:22.611Z,99.90
2019-03-27T22:57:52.631Z,99.90
2019-03-27T23:05:25.429Z,99.90
2019-03-27T23:07:55.474Z,99.90
2019-03-27T23:10:25.438Z,99.90
2019-03-27T23:12:55.710Z,99.90
2019-03-27T23:15:25.662Z,99.90
2019-03-27T23:17:55.642Z,99.90
2019-03-27T23:20:25.659Z,99.90
2019-03-27T23:22:55.627Z,99.90
2019-03-27T23:25:25.559Z,99.90
2019-03-27T23:27:55.492Z,99.90
2019-03-27T23:30:25.651Z,99.90
2019-03-27T23:32:55.769Z,99.90
2019-03-27T23:35:25.715Z,99.90
2019-03-27T23:37:55.807Z,99.90
2019-03-27T23:40:25.830Z,99.90
2019-03-27T23:42:55.815Z,99.90
2019-03-27T23:45:25.814Z,99.90
2019-03-27T23:47:56.730Z,99.90
2019-03-27T23:50:29.502Z,99.90
2019-03-27T23:52:59.502Z,99.90
2019-03-27T23:55:29.510Z,99.90
2019-03-27T23:57:59.558Z,99.90
